sensor_id;sensor_type;location;lat;lon;timestamp;pressure;altitude;pressure_sealevel;temperature;humidity
57644;BME280;43474;46.510;6.686;2024-03-29T00:01:06;94751.31;;;7.31;95.07
57644;BME280;43474;46.510;6.686;2024-03-29T00:03:50;94748.66;;;7.20;95.55
57644;BME280;43474;46.510;6.686;2024-03-29T00:06:15;94737.56;;;7.13;94.38
57644;BME280;43474;46.510;6.686;2024-03-29T00:08:41;94728.50;;;6.94;98.48
57644;BME280;43474;46.510;6.686;2024-03-29T00:11:07;94726.66;;;6.94;97.52
57644;BME280;43474;46.510;6.686;2024-03-29T00:13:32;94741.94;;;6.97;99.84
57644;BME280;43474;46.510;6.686;2024-03-29T00:16:01;94741.63;;;6.89;100.00
57644;BME280;43474;46.510;6.686;2024-03-29T00:18:27;94736.00;;;7.17;96.87
57644;BME280;43474;46.510;6.686;2024-03-29T00:20:52;94688.19;;;6.88;97.89
57644;BME280;43474;46.510;6.686;2024-03-29T00:23:18;94710.19;;;7.24;89.64
57644;BME280;43474;46.510;6.686;2024-03-29T00:25:43;94696.00;;;7.36;89.36
57644;BME280;43474;46.510;6.686;2024-03-29T00:28:09;94698.41;;;7.37;91.43
57644;BME280;43474;46.510;6.686;2024-03-29T00:30:35;94703.41;;;7.34;90.23
57644;BME280;43474;46.510;6.686;2024-03-29T00:33:00;94663.50;;;7.10;90.38
57644;BME280;43474;46.510;6.686;2024-03-29T00:35:26;94669.06;;;7.08;90.43
57644;BME280;43474;46.510;6.686;2024-03-29T00:37:52;94693.38;;;7.36;91.04
57644;BME280;43474;46.510;6.686;2024-03-29T00:40:17;94695.28;;;7.61;86.14
57644;BME280;43474;46.510;6.686;2024-03-29T00:42:43;94684.53;;;7.72;82.93
57644;BME280;43474;46.510;6.686;2024-03-29T00:45:09;94681.13;;;7.77;85.88
57644;BME280;43474;46.510;6.686;2024-03-29T00:47:35;94679.78;;;7.74;83.61
57644;BME280;43474;46.510;6.686;2024-03-29T00:50:00;94669.78;;;7.76;81.00
57644;BME280;43474;46.510;6.686;2024-03-29T00:52:26;94687.72;;;8.05;79.13
57644;BME280;43474;46.510;6.686;2024-03-29T00:54:52;94671.91;;;8.20;81.40
57644;BME280;43474;46.510;6.686;2024-03-29T00:57:18;94642.91;;;8.25;78.31
57644;BME280;43474;46.510;6.686;2024-03-29T00:59:44;94664.81;;;8.36;77.93
57644;BME280;43474;46.510;6.686;2024-03-29T01:02:10;94669.31;;;8.41;76.27
57644;BME280;43474;46.510;6.686;2024-03-29T01:04:35;94676.69;;;8.44;73.13
57644;BME280;43474;46.510;6.686;2024-03-29T01:07:01;94676.69;;;8.39;72.13
57644;BME280;43474;46.510;6.686;2024-03-29T01:09:27;94682.50;;;8.56;69.76
57644;BME280;43474;46.510;6.686;2024-03-29T01:11:53;94668.50;;;8.50;69.90
57644;BME280;43474;46.510;6.686;2024-03-29T01:14:19;94668.72;;;8.59;69.69
57644;BME280;43474;46.510;6.686;2024-03-29T01:16:44;94655.81;;;8.63;67.02
57644;BME280;43474;46.510;6.686;2024-03-29T01:19:10;94653.41;;;8.71;68.56
57644;BME280;43474;46.510;6.686;2024-03-29T01:21:36;94670.81;;;8.83;64.91
57644;BME280;43474;46.510;6.686;2024-03-29T01:24:02;94627.06;;;8.31;67.12
57644;BME280;43474;46.510;6.686;2024-03-29T01:26:28;94651.31;;;8.58;67.38
57644;BME280;43474;46.510;6.686;2024-03-29T01:28:54;94652.66;;;8.45;71.82
57644;BME280;43474;46.510;6.686;2024-03-29T01:31:22;94621.78;;;8.00;71.74
57644;BME280;43474;46.510;6.686;2024-03-29T01:33:47;94623.38;;;8.01;67.29
57644;BME280;43474;46.510;6.686;2024-03-29T01:36:13;94634.72;;;8.22;68.53
57644;BME280;43474;46.510;6.686;2024-03-29T01:38:39;94629.69;;;8.31;68.49
57644;BME280;43474;46.510;6.686;2024-03-29T01:41:04;94652.38;;;8.26;67.36
57644;BME280;43474;46.510;6.686;2024-03-29T01:43:30;94663.47;;;8.03;74.08
57644;BME280;43474;46.510;6.686;2024-03-29T01:45:56;94638.16;;;7.87;71.70
57644;BME280;43474;46.510;6.686;2024-03-29T01:48:26;94641.56;;;8.23;66.00
57644;BME280;43474;46.510;6.686;2024-03-29T01:50:56;94663.44;;;8.69;68.17
57644;BME280;43474;46.510;6.686;2024-03-29T01:53:23;94644.97;;;8.59;65.87
57644;BME280;43474;46.510;6.686;2024-03-29T01:55:50;94665.03;;;8.50;68.83
57644;BME280;43474;46.510;6.686;2024-03-29T01:58:17;94648.19;;;8.41;70.60
57644;BME280;43474;46.510;6.686;2024-03-29T02:00:55;94664.53;;;8.53;66.24
57644;BME280;43474;46.510;6.686;2024-03-29T02:03:22;94637.84;;;8.29;68.48
57644;BME280;43474;46.510;6.686;2024-03-29T02:05:49;94680.66;;;8.41;69.21
57644;BME280;43474;46.510;6.686;2024-03-29T02:08:15;94671.09;;;8.30;73.52
57644;BME280;43474;46.510;6.686;2024-03-29T02:10:42;94662.41;;;8.14;73.25
57644;BME280;43474;46.510;6.686;2024-03-29T02:13:08;94639.22;;;8.06;72.54
57644;BME280;43474;46.510;6.686;2024-03-29T02:15:34;94660.81;;;8.28;72.00
57644;BME280;43474;46.510;6.686;2024-03-29T02:18:00;94653.19;;;8.42;72.69
57644;BME280;43474;46.510;6.686;2024-03-29T02:20:26;94657.69;;;8.37;73.40
57644;BME280;43474;46.510;6.686;2024-03-29T02:22:57;94617.84;;;7.92;73.27
57644;BME280;43474;46.510;6.686;2024-03-29T02:25:25;94664.25;;;8.24;73.54
57644;BME280;43474;46.510;6.686;2024-03-29T02:27:51;94653.69;;;8.29;75.36
57644;BME280;43474;46.510;6.686;2024-03-29T02:30:18;94651.06;;;8.29;74.57
57644;BME280;43474;46.510;6.686;2024-03-29T02:32:43;94660.06;;;8.38;71.69
57644;BME280;43474;46.510;6.686;2024-03-29T02:35:09;94613.84;;;8.15;74.63
57644;BME280;43474;46.510;6.686;2024-03-29T02:37:35;94654.47;;;8.29;74.87
57644;BME280;43474;46.510;6.686;2024-03-29T02:40:02;94672.94;;;8.35;75.44
57644;BME280;43474;46.510;6.686;2024-03-29T02:42:28;94652.91;;;8.28;76.77
57644;BME280;43474;46.510;6.686;2024-03-29T02:44:54;94650.28;;;8.13;78.73
57644;BME280;43474;46.510;6.686;2024-03-29T02:47:21;94665.84;;;8.20;81.68
57644;BME280;43474;46.510;6.686;2024-03-29T02:49:47;94640.25;;;8.00;79.25
57644;BME280;43474;46.510;6.686;2024-03-29T02:52:13;94657.41;;;8.13;76.44
57644;BME280;43474;46.510;6.686;2024-03-29T02:54:40;94660.56;;;8.10;79.94
57644;BME280;43474;46.510;6.686;2024-03-29T02:57:06;94642.38;;;7.98;78.91
57644;BME280;43474;46.510;6.686;2024-03-29T02:59:31;94658.97;;;8.19;76.98
57644;BME280;43474;46.510;6.686;2024-03-29T03:01:57;94672.97;;;8.19;81.30
57644;BME280;43474;46.510;6.686;2024-03-29T03:04:23;94651.84;;;7.99;81.80
57644;BME280;43474;46.510;6.686;2024-03-29T03:06:48;94649.75;;;8.01;81.63
57644;BME280;43474;46.510;6.686;2024-03-29T03:09:14;94676.38;;;8.15;79.66
57644;BME280;43474;46.510;6.686;2024-03-29T03:11:58;94683.00;;;8.17;81.52
57644;BME280;43474;46.510;6.686;2024-03-29T03:14:24;94653.44;;;7.95;84.87
57644;BME280;43474;46.510;6.686;2024-03-29T03:16:50;94675.34;;;8.06;84.39
57644;BME280;43474;46.510;6.686;2024-03-29T03:19:16;94633.38;;;7.73;81.79
57644;BME280;43474;46.510;6.686;2024-03-29T03:21:41;94629.97;;;7.78;80.38
57644;BME280;43474;46.510;6.686;2024-03-29T03:24:07;94674.03;;;8.08;83.15
57644;BME280;43474;46.510;6.686;2024-03-29T03:26:34;94678.50;;;8.13;85.65
57644;BME280;43474;46.510;6.686;2024-03-29T03:29:00;94646.84;;;7.92;90.07
57644;BME280;43474;46.510;6.686;2024-03-29T03:31:25;94619.41;;;7.78;88.52
57644;BME280;43474;46.510;6.686;2024-03-29T03:33:51;94672.44;;;8.27;80.73
57644;BME280;43474;46.510;6.686;2024-03-29T03:36:17;94665.81;;;8.30;83.87
57644;BME280;43474;46.510;6.686;2024-03-29T03:38:43;94648.69;;;8.17;86.04
57644;BME280;43474;46.510;6.686;2024-03-29T03:41:09;94650.28;;;8.18;84.72
57644;BME280;43474;46.510;6.686;2024-03-29T03:43:34;94649.50;;;8.18;87.25
57644;BME280;43474;46.510;6.686;2024-03-29T03:46:01;94670.31;;;8.35;83.97
57644;BME280;43474;46.510;6.686;2024-03-29T03:48:27;94597.50;;;8.13;82.42
57644;BME280;43474;46.510;6.686;2024-03-29T03:50:56;94656.59;;;8.53;80.50
57644;BME280;43474;46.510;6.686;2024-03-29T03:53:22;94628.31;;;8.64;79.56
57644;BME280;43474;46.510;6.686;2024-03-29T03:55:47;94621.50;;;8.47;79.16
57644;BME280;43474;46.510;6.686;2024-03-29T03:58:13;94637.84;;;8.54;84.01
57644;BME280;43474;46.510;6.686;2024-03-29T04:00:39;94623.06;;;8.59;81.52
57644;BME280;43474;46.510;6.686;2024-03-29T04:03:05;94642.59;;;8.63;83.95
57644;BME280;43474;46.510;6.686;2024-03-29T04:05:30;94633.63;;;8.53;83.83
57644;BME280;43474;46.510;6.686;2024-03-29T04:07:57;94636.56;;;8.52;84.67
57644;BME280;43474;46.510;6.686;2024-03-29T04:10:23;94649.75;;;8.57;90.56
57644;BME280;43474;46.510;6.686;2024-03-29T04:12:52;94626.25;;;8.61;84.56
57644;BME280;43474;46.510;6.686;2024-03-29T04:15:17;94628.09;;;8.65;83.18
57644;BME280;43474;46.510;6.686;2024-03-29T04:17:43;94597.22;;;8.50;80.35
57644;BME280;43474;46.510;6.686;2024-03-29T04:20:09;94640.41;;;8.95;78.83
57644;BME280;43474;46.510;6.686;2024-03-29T04:22:35;94608.97;;;8.89;76.11
57644;BME280;43474;46.510;6.686;2024-03-29T04:25:00;94589.94;;;8.92;76.12
57644;BME280;43474;46.510;6.686;2024-03-29T04:27:26;94603.50;;;9.29;76.97
57644;BME280;43474;46.510;6.686;2024-03-29T04:29:53;94617.69;;;9.44;74.87
57644;BME280;43474;46.510;6.686;2024-03-29T04:32:19;94602.59;;;9.89;73.26
57644;BME280;43474;46.510;6.686;2024-03-29T04:34:49;94557.53;;;9.70;72.11
57644;BME280;43474;46.510;6.686;2024-03-29T04:37:15;94603.28;;;9.70;72.52
57644;BME280;43474;46.510;6.686;2024-03-29T04:39:45;94600.16;;;9.58;75.64
57644;BME280;43474;46.510;6.686;2024-03-29T04:42:11;94569.38;;;9.33;73.93
57644;BME280;43474;46.510;6.686;2024-03-29T04:44:37;94592.16;;;9.68;74.26
57644;BME280;43474;46.510;6.686;2024-03-29T04:47:04;94561.66;;;9.47;70.89
57644;BME280;43474;46.510;6.686;2024-03-29T04:49:30;94602.00;;;9.63;69.76
57644;BME280;43474;46.510;6.686;2024-03-29T04:51:59;94592.22;;;9.97;68.71
57644;BME280;43474;46.510;6.686;2024-03-29T04:54:25;94563.47;;;9.86;63.58
57644;BME280;43474;46.510;6.686;2024-03-29T04:56:52;94558.25;;;10.09;66.10
57644;BME280;43474;46.510;6.686;2024-03-29T04:59:17;94522.38;;;9.93;67.10
57644;BME280;43474;46.510;6.686;2024-03-29T05:01:44;94566.91;;;10.49;61.60
57644;BME280;43474;46.510;6.686;2024-03-29T05:04:10;94512.38;;;10.67;59.10
57644;BME280;43474;46.510;6.686;2024-03-29T05:06:36;94548.78;;;10.80;56.68
57644;BME280;43474;46.510;6.686;2024-03-29T05:09:02;94559.63;;;11.03;57.75
57644;BME280;43474;46.510;6.686;2024-03-29T05:11:27;94545.28;;;10.85;56.44
57644;BME280;43474;46.510;6.686;2024-03-29T05:13:53;94531.66;;;10.73;58.22
57644;BME280;43474;46.510;6.686;2024-03-29T05:16:19;94539.72;;;11.05;53.03
57644;BME280;43474;46.510;6.686;2024-03-29T05:18:47;94533.28;;;11.30;51.76
57644;BME280;43474;46.510;6.686;2024-03-29T05:21:13;94561.44;;;11.26;53.42
57644;BME280;43474;46.510;6.686;2024-03-29T05:23:38;94556.56;;;11.33;54.33
57644;BME280;43474;46.510;6.686;2024-03-29T05:26:04;94520.94;;;11.02;53.68
57644;BME280;43474;46.510;6.686;2024-03-29T05:28:30;94551.59;;;11.08;55.22
57644;BME280;43474;46.510;6.686;2024-03-29T05:30:56;94529.66;;;10.83;54.76
57644;BME280;43474;46.510;6.686;2024-03-29T05:33:21;94547.97;;;11.23;54.24
57644;BME280;43474;46.510;6.686;2024-03-29T05:35:47;94591.66;;;11.49;49.83
57644;BME280;43474;46.510;6.686;2024-03-29T05:38:12;94567.47;;;11.51;50.89
57644;BME280;43474;46.510;6.686;2024-03-29T05:40:38;94548.59;;;11.33;48.89
57644;BME280;43474;46.510;6.686;2024-03-29T05:43:04;94540.38;;;11.35;49.80
57644;BME280;43474;46.510;6.686;2024-03-29T05:45:30;94557.56;;;11.56;49.07
57644;BME280;43474;46.510;6.686;2024-03-29T05:47:57;94560.44;;;11.60;51.07
57644;BME280;43474;46.510;6.686;2024-03-29T05:50:24;94565.59;;;11.51;52.24
57644;BME280;43474;46.510;6.686;2024-03-29T05:52:51;94569.28;;;11.55;51.49
57644;BME280;43474;46.510;6.686;2024-03-29T05:55:18;94549.53;;;11.43;53.84
57644;BME280;43474;46.510;6.686;2024-03-29T05:57:44;94542.81;;;11.31;53.59
57644;BME280;43474;46.510;6.686;2024-03-29T06:00:14;94565.38;;;11.48;54.21
57644;BME280;43474;46.510;6.686;2024-03-29T06:02:41;94530.56;;;11.35;55.34
57644;BME280;43474;46.510;6.686;2024-03-29T06:05:08;94539.94;;;11.47;53.59
57644;BME280;43474;46.510;6.686;2024-03-29T06:07:34;94550.31;;;11.62;53.29
57644;BME280;43474;46.510;6.686;2024-03-29T06:10:00;94534.06;;;11.69;54.72
57644;BME280;43474;46.510;6.686;2024-03-29T06:12:29;94544.84;;;11.72;53.17
57644;BME280;43474;46.510;6.686;2024-03-29T06:14:54;94543.38;;;11.66;53.29
57644;BME280;43474;46.510;6.686;2024-03-29T06:17:38;94545.78;;;11.81;53.41
57644;BME280;43474;46.510;6.686;2024-03-29T06:20:05;94553.81;;;11.76;53.98
57644;BME280;43474;46.510;6.686;2024-03-29T06:22:30;94564.34;;;11.81;54.97
57644;BME280;43474;46.510;6.686;2024-03-29T06:24:57;94553.69;;;11.86;54.98
57644;BME280;43474;46.510;6.686;2024-03-29T06:27:33;94536.75;;;11.63;55.42
57644;BME280;43474;46.510;6.686;2024-03-29T06:30:01;94556.34;;;11.86;53.85
57644;BME280;43474;46.510;6.686;2024-03-29T06:32:26;94522.97;;;11.80;56.54
57644;BME280;43474;46.510;6.686;2024-03-29T06:34:52;94560.09;;;11.85;58.70
57644;BME280;43474;46.510;6.686;2024-03-29T06:37:18;94555.41;;;11.77;56.93
57644;BME280;43474;46.510;6.686;2024-03-29T06:39:46;94563.31;;;11.82;56.71
57644;BME280;43474;46.510;6.686;2024-03-29T06:42:11;94553.22;;;11.84;58.83
57644;BME280;43474;46.510;6.686;2024-03-29T06:44:37;94563.88;;;11.79;60.35
57644;BME280;43474;46.510;6.686;2024-03-29T06:47:03;94571.69;;;11.71;59.31
57644;BME280;43474;46.510;6.686;2024-03-29T06:49:29;94569.81;;;11.71;58.20
57644;BME280;43474;46.510;6.686;2024-03-29T06:51:55;94568.97;;;11.76;57.32
57644;BME280;43474;46.510;6.686;2024-03-29T06:54:23;94581.31;;;11.85;60.30
57644;BME280;43474;46.510;6.686;2024-03-29T06:56:52;94578.56;;;11.72;59.93
57644;BME280;43474;46.510;6.686;2024-03-29T06:59:19;94584.97;;;11.89;61.61
57644;BME280;43474;46.510;6.686;2024-03-29T07:01:44;94602.69;;;11.75;60.91
57644;BME280;43474;46.510;6.686;2024-03-29T07:04:11;94596.22;;;11.62;60.65
57644;BME280;43474;46.510;6.686;2024-03-29T07:06:36;94611.66;;;11.60;64.51
57644;BME280;43474;46.510;6.686;2024-03-29T07:09:03;94571.56;;;11.24;65.06
57644;BME280;43474;46.510;6.686;2024-03-29T07:11:29;94573.63;;;11.27;67.79
57644;BME280;43474;46.510;6.686;2024-03-29T07:13:55;94606.88;;;11.38;66.05
57644;BME280;43474;46.510;6.686;2024-03-29T07:16:21;94583.25;;;11.42;62.85
57644;BME280;43474;46.510;6.686;2024-03-29T07:18:47;94588.13;;;11.54;63.59
57644;BME280;43474;46.510;6.686;2024-03-29T07:21:12;94622.53;;;11.78;61.68
57644;BME280;43474;46.510;6.686;2024-03-29T07:23:38;94613.22;;;11.99;57.47
57644;BME280;43474;46.510;6.686;2024-03-29T07:26:05;94583.94;;;12.04;58.17
57644;BME280;43474;46.510;6.686;2024-03-29T07:28:38;94597.06;;;12.14;58.06
57644;BME280;43474;46.510;6.686;2024-03-29T07:31:07;94613.16;;;12.51;60.68
57644;BME280;43474;46.510;6.686;2024-03-29T07:33:34;94612.97;;;12.47;59.61
57644;BME280;43474;46.510;6.686;2024-03-29T07:36:00;94599.16;;;12.31;58.94
57644;BME280;43474;46.510;6.686;2024-03-29T07:38:26;94574.16;;;12.32;59.00
57644;BME280;43474;46.510;6.686;2024-03-29T07:40:51;94615.91;;;12.46;59.19
57644;BME280;43474;46.510;6.686;2024-03-29T07:43:22;94608.22;;;12.30;62.08
57644;BME280;43474;46.510;6.686;2024-03-29T07:45:48;94580.03;;;12.15;65.25
57644;BME280;43474;46.510;6.686;2024-03-29T07:48:15;94591.94;;;12.18;64.04
57644;BME280;43474;46.510;6.686;2024-03-29T07:50:42;94618.66;;;12.40;61.61
57644;BME280;43474;46.510;6.686;2024-03-29T07:53:08;94634.34;;;12.56;65.98
57644;BME280;43474;46.510;6.686;2024-03-29T07:55:38;94598.28;;;12.36;63.54
57644;BME280;43474;46.510;6.686;2024-03-29T07:58:05;94609.25;;;12.48;65.73
57644;BME280;43474;46.510;6.686;2024-03-29T08:00:34;94619.94;;;12.43;65.18
57644;BME280;43474;46.510;6.686;2024-03-29T08:03:00;94637.25;;;12.40;65.23
57644;BME280;43474;46.510;6.686;2024-03-29T08:05:27;94618.25;;;12.33;69.90
57644;BME280;43474;46.510;6.686;2024-03-29T08:07:53;94611.44;;;12.27;68.26
57644;BME280;43474;46.510;6.686;2024-03-29T08:10:18;94643.44;;;12.36;67.58
57644;BME280;43474;46.510;6.686;2024-03-29T08:12:44;94621.81;;;12.10;70.75
57644;BME280;43474;46.510;6.686;2024-03-29T08:15:10;94625.56;;;12.09;70.83
57644;BME280;43474;46.510;6.686;2024-03-29T08:17:36;94632.34;;;12.15;71.27
57644;BME280;43474;46.510;6.686;2024-03-29T08:20:02;94654.75;;;12.41;69.86
57644;BME280;43474;46.510;6.686;2024-03-29T08:22:28;94630.88;;;12.09;78.07
57644;BME280;43474;46.510;6.686;2024-03-29T08:24:55;94631.06;;;12.12;79.41
57644;BME280;43474;46.510;6.686;2024-03-29T08:27:21;94653.69;;;12.42;81.61
57644;BME280;43474;46.510;6.686;2024-03-29T08:29:46;94637.72;;;12.29;74.11
57644;BME280;43474;46.510;6.686;2024-03-29T08:32:15;94628.75;;;12.25;76.14
57644;BME280;43474;46.510;6.686;2024-03-29T08:34:40;94642.03;;;12.25;77.04
57644;BME280;43474;46.510;6.686;2024-03-29T08:37:06;94593.03;;;11.98;76.76
57644;BME280;43474;46.510;6.686;2024-03-29T08:39:32;94650.97;;;12.61;72.34
57644;BME280;43474;46.510;6.686;2024-03-29T08:41:58;94657.38;;;12.60;74.77
57644;BME280;43474;46.510;6.686;2024-03-29T08:44:25;94629.41;;;12.49;78.20
57644;BME280;43474;46.510;6.686;2024-03-29T08:46:51;94646.25;;;12.72;81.98
57644;BME280;43474;46.510;6.686;2024-03-29T08:49:17;94588.88;;;12.71;87.24
57644;BME280;43474;46.510;6.686;2024-03-29T08:51:43;94606.44;;;13.00;83.34
57644;BME280;43474;46.510;6.686;2024-03-29T08:54:12;94613.50;;;13.45;88.95
57644;BME280;43474;46.510;6.686;2024-03-29T08:56:38;94612.81;;;13.76;82.87
57644;BME280;43474;46.510;6.686;2024-03-29T08:59:06;94632.31;;;13.85;84.84
57644;BME280;43474;46.510;6.686;2024-03-29T09:01:43;94610.28;;;13.71;88.36
57644;BME280;43474;46.510;6.686;2024-03-29T09:04:09;94607.16;;;13.91;94.00
57644;BME280;43474;46.510;6.686;2024-03-29T09:06:37;94630.84;;;14.15;78.53
57644;BME280;43474;46.510;6.686;2024-03-29T09:09:06;94658.03;;;14.26;77.41
57644;BME280;43474;46.510;6.686;2024-03-29T09:11:33;94657.63;;;14.33;83.34
57644;BME280;43474;46.510;6.686;2024-03-29T09:13:58;94645.19;;;14.06;75.91
57644;BME280;43474;46.510;6.686;2024-03-29T09:16:25;94685.72;;;14.39;73.66
57644;BME280;43474;46.510;6.686;2024-03-29T09:18:53;94656.59;;;14.42;78.96
57644;BME280;43474;46.510;6.686;2024-03-29T09:21:20;94611.97;;;14.03;73.91
57644;BME280;43474;46.510;6.686;2024-03-29T09:23:50;94616.50;;;14.25;77.50
57644;BME280;43474;46.510;6.686;2024-03-29T09:26:19;94636.75;;;14.48;70.58
57644;BME280;43474;46.510;6.686;2024-03-29T09:28:47;94643.19;;;14.34;76.86
57644;BME280;43474;46.510;6.686;2024-03-29T09:31:13;94622.31;;;14.27;75.25
57644;BME280;43474;46.510;6.686;2024-03-29T09:33:41;94642.63;;;14.45;69.33
57644;BME280;43474;46.510;6.686;2024-03-29T09:36:08;94629.88;;;14.34;73.55
57644;BME280;43474;46.510;6.686;2024-03-29T09:38:36;94626.13;;;14.35;72.06
57644;BME280;43474;46.510;6.686;2024-03-29T09:41:11;94648.09;;;14.18;67.34
57644;BME280;43474;46.510;6.686;2024-03-29T09:43:49;94620.56;;;14.22;71.51
57644;BME280;43474;46.510;6.686;2024-03-29T09:46:23;94611.09;;;14.39;66.51
57644;BME280;43474;46.510;6.686;2024-03-29T09:48:52;94636.75;;;14.80;65.70
57644;BME280;43474;46.510;6.686;2024-03-29T09:51:21;94676.47;;;15.21;65.66
57644;BME280;43474;46.510;6.686;2024-03-29T09:54:48;94599.47;;;15.63;72.29
57644;BME280;43474;46.510;6.686;2024-03-29T09:57:46;94653.09;;;16.62;75.42
57644;BME280;43474;46.510;6.686;2024-03-29T10:00:34;94611.09;;;16.53;67.45
57644;BME280;43474;46.510;6.686;2024-03-29T10:03:32;94611.88;;;16.45;67.03
57644;BME280;43474;46.510;6.686;2024-03-29T10:06:29;94618.16;;;16.67;66.10
57644;BME280;43474;46.510;6.686;2024-03-29T10:09:00;94647.69;;;16.88;62.65
57644;BME280;43474;46.510;6.686;2024-03-29T10:11:43;94650.53;;;16.91;68.36
57644;BME280;43474;46.510;6.686;2024-03-29T10:14:10;94580.31;;;16.30;71.45
57644;BME280;43474;46.510;6.686;2024-03-29T10:16:36;94612.38;;;16.39;64.79
57644;BME280;43474;46.510;6.686;2024-03-29T10:22:27;94624.03;;;15.91;68.18
57644;BME280;43474;46.510;6.686;2024-03-29T10:24:56;94597.63;;;16.24;65.60
57644;BME280;43474;46.510;6.686;2024-03-29T10:27:42;94656.72;;;16.40;73.41
57644;BME280;43474;46.510;6.686;2024-03-29T10:30:11;94644.75;;;16.54;74.02
57644;BME280;43474;46.510;6.686;2024-03-29T10:32:45;94602.41;;;16.74;69.83
57644;BME280;43474;46.510;6.686;2024-03-29T10:39:36;94662.06;;;17.21;70.30
57644;BME280;43474;46.510;6.686;2024-03-29T11:08:52;94604.47;;;19.19;60.65
57644;BME280;43474;46.510;6.686;2024-03-29T11:11:30;94613.88;;;19.62;55.20
57644;BME280;43474;46.510;6.686;2024-03-29T11:14:12;94594.41;;;19.41;56.05
57644;BME280;43474;46.510;6.686;2024-03-29T11:16:43;94633.34;;;19.59;57.34
57644;BME280;43474;46.510;6.686;2024-03-29T11:19:26;94601.56;;;19.36;56.82
57644;BME280;43474;46.510;6.686;2024-03-29T11:22:17;94589.94;;;19.20;54.62
57644;BME280;43474;46.510;6.686;2024-03-29T11:25:15;94590.63;;;19.29;51.79
57644;BME280;43474;46.510;6.686;2024-03-29T11:28:05;94607.06;;;19.65;53.72
57644;BME280;43474;46.510;6.686;2024-03-29T11:31:08;94587.53;;;20.48;50.39
57644;BME280;43474;46.510;6.686;2024-03-29T11:34:08;94601.59;;;21.33;57.68
57644;BME280;43474;46.510;6.686;2024-03-29T11:36:54;94561.09;;;20.82;48.56
57644;BME280;43474;46.510;6.686;2024-03-29T11:39:47;94562.09;;;21.56;49.60
57644;BME280;43474;46.510;6.686;2024-03-29T11:42:37;94589.13;;;21.95;48.72
57644;BME280;43474;46.510;6.686;2024-03-29T11:48:05;94575.47;;;21.88;46.85
57644;BME280;43474;46.510;6.686;2024-03-29T11:51:01;94553.34;;;21.79;49.75
57644;BME280;43474;46.510;6.686;2024-03-29T11:53:46;94543.06;;;21.84;44.95
57644;BME280;43474;46.510;6.686;2024-03-29T11:56:12;94594.16;;;21.97;51.95
57644;BME280;43474;46.510;6.686;2024-03-29T11:58:39;94562.53;;;21.93;46.69
57644;BME280;43474;46.510;6.686;2024-03-29T12:01:14;94569.22;;;22.19;47.35
57644;BME280;43474;46.510;6.686;2024-03-29T12:03:41;94585.91;;;22.67;49.72
57644;BME280;43474;46.510;6.686;2024-03-29T12:06:09;94539.16;;;22.40;49.10
57644;BME280;43474;46.510;6.686;2024-03-29T12:08:38;94543.81;;;21.65;45.68
57644;BME280;43474;46.510;6.686;2024-03-29T12:11:05;94578.22;;;21.72;46.24
57644;BME280;43474;46.510;6.686;2024-03-29T12:13:31;94514.50;;;21.45;46.04
57644;BME280;43474;46.510;6.686;2024-03-29T12:15:57;94506.28;;;21.57;48.42
57644;BME280;43474;46.510;6.686;2024-03-29T12:18:29;94512.09;;;21.39;46.49
57644;BME280;43474;46.510;6.686;2024-03-29T12:21:00;94550.97;;;21.58;45.97
57644;BME280;43474;46.510;6.686;2024-03-29T12:23:30;94504.84;;;21.28;48.59
57644;BME280;43474;46.510;6.686;2024-03-29T12:26:06;94514.03;;;21.78;47.40
57644;BME280;43474;46.510;6.686;2024-03-29T12:29:27;94551.81;;;22.36;50.86
57644;BME280;43474;46.510;6.686;2024-03-29T12:32:18;94506.56;;;22.49;43.93
57644;BME280;43474;46.510;6.686;2024-03-29T12:34:49;94521.41;;;22.62;46.67
57644;BME280;43474;46.510;6.686;2024-03-29T12:37:15;94525.75;;;22.24;45.31
57644;BME280;43474;46.510;6.686;2024-03-29T12:39:41;94534.69;;;22.09;45.54
57644;BME280;43474;46.510;6.686;2024-03-29T12:42:08;94527.19;;;21.99;48.81
57644;BME280;43474;46.510;6.686;2024-03-29T12:44:34;94542.91;;;21.97;46.24
57644;BME280;43474;46.510;6.686;2024-03-29T12:47:01;94523.44;;;21.49;44.79
57644;BME280;43474;46.510;6.686;2024-03-29T12:49:28;94539.94;;;21.47;47.82
57644;BME280;43474;46.510;6.686;2024-03-29T12:51:55;94552.38;;;21.52;44.19
57644;BME280;43474;46.510;6.686;2024-03-29T12:54:24;94509.97;;;21.49;51.57
57644;BME280;43474;46.510;6.686;2024-03-29T12:56:57;94522.88;;;22.13;48.41
57644;BME280;43474;46.510;6.686;2024-03-29T12:59:28;94508.47;;;22.48;45.10
57644;BME280;43474;46.510;6.686;2024-03-29T13:01:54;94539.84;;;23.02;46.15
57644;BME280;43474;46.510;6.686;2024-03-29T13:04:22;94539.56;;;23.07;45.97
57644;BME280;43474;46.510;6.686;2024-03-29T13:06:50;94508.03;;;22.46;43.46
57644;BME280;43474;46.510;6.686;2024-03-29T13:09:16;94521.00;;;22.17;46.12
57644;BME280;43474;46.510;6.686;2024-03-29T13:11:48;94513.75;;;21.83;48.19
57644;BME280;43474;46.510;6.686;2024-03-29T13:14:19;94525.59;;;21.98;45.74
57644;BME280;43474;46.510;6.686;2024-03-29T13:16:45;94503.59;;;21.76;46.99
57644;BME280;43474;46.510;6.686;2024-03-29T13:19:13;94494.03;;;21.59;48.56
57644;BME280;43474;46.510;6.686;2024-03-29T13:21:43;94539.22;;;21.66;42.51
57644;BME280;43474;46.510;6.686;2024-03-29T13:24:13;94498.28;;;21.09;44.29
57644;BME280;43474;46.510;6.686;2024-03-29T13:26:39;94472.84;;;21.07;44.63
57644;BME280;43474;46.510;6.686;2024-03-29T13:29:05;94493.50;;;21.19;46.57
57644;BME280;43474;46.510;6.686;2024-03-29T13:31:31;94512.78;;;21.36;45.15
57644;BME280;43474;46.510;6.686;2024-03-29T13:33:58;94535.28;;;21.44;45.87
57644;BME280;43474;46.510;6.686;2024-03-29T13:36:40;94545.00;;;21.68;46.15
57644;BME280;43474;46.510;6.686;2024-03-29T13:39:07;94524.31;;;21.72;43.43
57644;BME280;43474;46.510;6.686;2024-03-29T13:41:35;94503.81;;;21.87;47.20
57644;BME280;43474;46.510;6.686;2024-03-29T13:44:04;94490.84;;;22.12;44.66
57644;BME280;43474;46.510;6.686;2024-03-29T13:46:37;94546.00;;;22.14;41.86
57644;BME280;43474;46.510;6.686;2024-03-29T13:49:03;94512.19;;;22.01;41.80
57644;BME280;43474;46.510;6.686;2024-03-29T13:51:30;94483.00;;;22.07;41.53